Time;durP1;ratioP1;P1;durP2;ratioP2;P2;SDS_P1;SDS_P2;PMS_P1;PMS_P2;Temp;Humidity;BMP_temperature;BMP_pressure;BME280_temperature;BME280_humidity;BME280_pressure;Samples;Min_cycle;Max_cycle;Signal;HPM_P1;HPM_P2
2022/01/25 00:09:21;;;;;;;;;;;20.10;29.50;;;;;;483733;246;957;-73
2022/01/25 00:25:45;;;;;;;;;;;20.00;29.60;;;;;;483763;246;981;-74
2022/01/25 00:27:43;;;;;;;;;;;19.90;29.70;;;;;;482570;246;1418;-74
2022/01/25 00:29:57;;;;;;;;;;;20.10;29.60;;;;;;483617;246;1408;-74
2022/01/25 00:31:50;;;;;;;;;;;20.20;29.50;;;;;;483062;246;1339;-74
2022/01/25 00:33:51;;;;;;;;;;;20.30;29.50;;;;;;483737;246;1079;-74
2022/01/25 00:35:53;;;;;;;;;;;20.10;29.50;;;;;;483658;246;1183;-74
2022/01/25 00:37:54;;;;;;;;;;;20.00;29.60;;;;;;483641;247;1109;-74
2022/01/25 00:39:55;;;;;;;;;;;20.10;29.60;;;;;;483758;247;2180;-73
2022/01/25 00:41:57;;;;;;;;;;;20.10;29.40;;;;;;483631;247;1334;-73
2022/01/25 00:44:00;;;;;;;;;;;20.10;29.40;;;;;;483697;246;1069;-73
2022/01/25 00:46:04;;;;;;;;;;;20.10;29.60;;;;;;483614;246;1332;-73
2022/01/25 00:48:03;;;;;;;;;;;20.10;29.60;;;;;;483413;246;1425;-74
2022/01/25 00:50:03;;;;;;;;;;;20.10;29.40;;;;;;483588;247;1498;-74
2022/01/25 00:52:19;;;;;;;;;;;20.20;29.40;;;;;;483729;247;1154;-73
2022/01/25 00:54:12;;;;;;;;;;;20.20;29.30;;;;;;482881;246;1449;-73
2022/01/25 00:56:10;;;;;;;;;;;20.00;29.50;;;;;;483597;246;1367;-73
2022/01/25 00:58:12;;;;;;;;;;;20.30;29.30;;;;;;483814;246;1153;-73
2022/01/25 01:00:13;;;;;;;;;;;20.20;29.40;;;;;;483695;246;2184;-73
2022/01/25 01:02:14;;;;;;;;;;;20.10;29.50;;;;;;483582;247;1085;-74
2022/01/25 01:04:16;;;;;;;;;;;20.20;29.40;;;;;;483612;247;1084;-74
2022/01/25 01:06:17;;;;;;;;;;;20.10;29.50;;;;;;483615;246;1118;-74
2022/01/25 01:08:18;;;;;;;;;;;20.30;29.40;;;;;;483796;246;1097;-74
2022/01/25 01:10:22;;;;;;;;;;;20.20;29.40;;;;;;483676;247;958;-74
2022/01/25 01:12:38;;;;;;;;;;;20.20;29.30;;;;;;483556;246;1454;-73
2022/01/25 01:14:36;;;;;;;;;;;20.10;29.40;;;;;;482438;246;1415;-74
2022/01/25 01:30:45;;;;;;;;;;;20.20;29.50;;;;;;467766;254;980;-74
2022/01/25 01:33:11;;;;;;;;;;;20.10;29.40;;;;;;467330;255;1430;-74
2022/01/25 01:37:50;;;;;;;;;;;20.10;29.50;;;;;;456820;255;1211;-73
2022/01/25 01:40:05;;;;;;;;;;;20.10;29.50;;;;;;466859;255;2122;-74
2022/01/25 01:44:13;;;;;;;;;;;20.20;29.30;;;;;;462732;255;1158;-74
2022/01/25 01:46:29;;;;;;;;;;;20.00;29.50;;;;;;467589;255;1454;-74
2022/01/25 01:48:33;;;;;;;;;;;20.00;29.50;;;;;;467131;255;1453;-74
2022/01/25 01:50:34;;;;;;;;;;;20.00;29.50;;;;;;467574;255;1404;-74
2022/01/25 01:52:33;;;;;;;;;;;20.10;29.40;;;;;;467630;255;1317;-74
2022/01/25 01:54:34;;;;;;;;;;;20.10;29.50;;;;;;467804;255;968;-73
2022/01/25 01:56:35;;;;;;;;;;;20.10;29.40;;;;;;467825;255;1275;-74
2022/01/25 01:58:37;;;;;;;;;;;20.10;29.50;;;;;;467733;255;963;-73
2022/01/25 02:00:38;;;;;;;;;;;20.10;29.60;;;;;;467766;255;2128;-74
2022/01/25 02:02:39;;;;;;;;;;;20.00;29.50;;;;;;467668;255;1252;-74
2022/01/25 02:04:41;;;;;;;;;;;20.10;29.50;;;;;;467710;255;983;-74
2022/01/25 02:06:42;;;;;;;;;;;20.20;29.50;;;;;;467762;255;1249;-74
2022/01/25 02:08:43;;;;;;;;;;;20.20;29.50;;;;;;467785;255;960;-73
2022/01/25 02:10:45;;;;;;;;;;;20.00;29.40;;;;;;467779;255;1389;-74
2022/01/25 02:12:49;;;;;;;;;;;20.10;29.40;;;;;;467724;255;1103;-74
2022/01/25 02:14:48;;;;;;;;;;;20.20;29.30;;;;;;467607;255;1288;-74
2022/01/25 02:17:04;;;;;;;;;;;20.10;29.40;;;;;;467692;255;1345;-74
2022/01/25 02:23:53;;;;;;;;;;;20.10;29.50;;;;;;444765;268;1240;-74
2022/01/25 02:25:55;;;;;;;;;;;20.00;29.50;;;;;;456679;255;1229;-73
2022/01/25 02:27:57;;;;;;;;;;;20.00;29.60;;;;;;467743;255;1073;-74
2022/01/25 02:29:58;;;;;;;;;;;20.10;29.50;;;;;;467788;255;1167;-74
2022/01/25 02:31:59;;;;;;;;;;;20.10;29.40;;;;;;467708;255;1237;-74
2022/01/25 02:34:01;;;;;;;;;;;20.00;29.50;;;;;;467819;255;1032;-74
2022/01/25 02:36:02;;;;;;;;;;;19.90;29.60;;;;;;467718;255;1143;-74
2022/01/25 02:38:03;;;;;;;;;;;20.10;29.60;;;;;;467774;255;1231;-74
2022/01/25 02:40:05;;;;;;;;;;;20.00;29.50;;;;;;467771;255;2212;-74
2022/01/25 02:42:06;;;;;;;;;;;20.20;29.40;;;;;;467762;255;1158;-74
2022/01/25 02:44:08;;;;;;;;;;;20.00;29.50;;;;;;467742;255;1186;-74
2022/01/25 02:48:42;;;;;;;;;;;20.20;29.40;;;;;;467373;255;1164;-73
2022/01/25 02:50:43;;;;;;;;;;;20.20;29.30;;;;;;467720;255;972;-74
2022/01/25 02:52:44;;;;;;;;;;;20.00;29.40;;;;;;467760;255;1121;-74
2022/01/25 02:54:46;;;;;;;;;;;20.00;29.50;;;;;;467833;255;952;-74
2022/01/25 02:56:47;;;;;;;;;;;20.10;29.40;;;;;;467812;255;1176;-73
2022/01/25 02:58:48;;;;;;;;;;;20.20;29.40;;;;;;467758;255;1089;-73
2022/01/25 03:00:50;;;;;;;;;;;20.00;29.50;;;;;;467719;255;2188;-73
2022/01/25 03:02:51;;;;;;;;;;;20.00;29.50;;;;;;467631;255;1106;-74
2022/01/25 03:04:52;;;;;;;;;;;20.00;29.50;;;;;;467687;255;1056;-73
2022/01/25 03:06:54;;;;;;;;;;;20.10;29.50;;;;;;467597;255;1196;-73
2022/01/25 03:08:55;;;;;;;;;;;20.00;29.50;;;;;;467670;255;1104;-74
2022/01/25 03:10:56;;;;;;;;;;;20.10;29.40;;;;;;467666;255;1315;-74
2022/01/25 03:12:58;;;;;;;;;;;20.20;29.40;;;;;;467712;255;1220;-73
2022/01/25 03:15:22;;;;;;;;;;;20.10;29.50;;;;;;467713;255;1189;-73
2022/01/25 03:17:09;;;;;;;;;;;20.10;29.40;;;;;;466395;255;1261;-73
2022/01/25 03:19:29;;;;;;;;;;;20.00;29.50;;;;;;467603;255;1343;-74
2022/01/25 03:21:33;;;;;;;;;;;20.00;29.60;;;;;;466297;251;2199;-74
2022/01/25 03:23:23;;;;;;;;;;;20.10;29.50;;;;;;466911;255;1377;-74
2022/01/25 03:25:24;;;;;;;;;;;19.90;29.50;;;;;;467695;255;1090;-73
2022/01/25 03:27:25;;;;;;;;;;;19.90;29.60;;;;;;467730;255;1097;-74
2022/01/25 03:29:27;;;;;;;;;;;19.90;29.60;;;;;;467765;255;1132;-74
2022/01/25 03:31:28;;;;;;;;;;;20.10;29.40;;;;;;467721;255;1194;-73
2022/01/25 03:33:29;;;;;;;;;;;20.10;29.40;;;;;;467844;255;1131;-73
2022/01/25 03:35:31;;;;;;;;;;;20.10;29.40;;;;;;467753;255;1093;-73
2022/01/25 03:37:32;;;;;;;;;;;20.10;29.40;;;;;;467645;255;1111;-73
2022/01/25 03:39:33;;;;;;;;;;;20.20;29.40;;;;;;467707;255;970;-74
2022/01/25 03:41:34;;;;;;;;;;;20.20;29.40;;;;;;467659;255;2190;-74
2022/01/25 03:43:36;;;;;;;;;;;20.00;29.50;;;;;;467728;255;1269;-74
2022/01/25 03:45:40;;;;;;;;;;;20.00;29.60;;;;;;467776;255;1217;-74
2022/01/25 03:47:57;;;;;;;;;;;20.00;29.60;;;;;;467389;255;1432;-74
2022/01/25 03:49:50;;;;;;;;;;;20.00;29.60;;;;;;466894;255;1432;-74
2022/01/25 03:51:51;;;;;;;;;;;20.10;29.40;;;;;;467611;255;1427;-74
2022/01/25 03:53:53;;;;;;;;;;;20.00;29.50;;;;;;467703;255;1145;-74
2022/01/25 03:55:53;;;;;;;;;;;20.10;29.40;;;;;;467707;255;1955;-73
2022/01/25 03:57:55;;;;;;;;;;;20.10;29.40;;;;;;467713;255;1223;-73
2022/01/25 03:59:59;;;;;;;;;;;20.10;29.40;;;;;;467761;255;2160;-74
2022/01/25 04:01:58;;;;;;;;;;;20.00;29.50;;;;;;467533;255;1571;-74
2022/01/25 04:04:02;;;;;;;;;;;20.10;29.40;;;;;;467698;255;1103;-73
2022/01/25 04:06:02;;;;;;;;;;;20.10;29.40;;;;;;467482;251;1518;-73
2022/01/25 04:08:02;;;;;;;;;;;20.00;29.40;;;;;;467666;255;1607;-74
2022/01/25 04:10:03;;;;;;;;;;;20.10;29.50;;;;;;467875;255;993;-74
2022/01/25 04:12:05;;;;;;;;;;;20.00;29.50;;;;;;467741;255;1160;-74
2022/01/25 04:14:06;;;;;;;;;;;20.00;29.50;;;;;;467759;255;1107;-73
2022/01/25 04:16:12;;;;;;;;;;;20.00;29.50;;;;;;467679;255;1292;-74
2022/01/25 04:18:25;;;;;;;;;;;19.90;29.60;;;;;;467471;255;1440;-73
2022/01/25 04:20:25;;;;;;;;;;;20.00;29.40;;;;;;467424;255;2203;-74
2022/01/25 04:25:04;;;;;;;;;;;19.90;29.50;;;;;;453639;255;1184;-73
2022/01/25 04:26:58;;;;;;;;;;;20.10;29.50;;;;;;467239;255;1429;-74
2022/01/25 04:28:59;;;;;;;;;;;20.10;29.40;;;;;;467776;255;1083;-74
2022/01/25 04:31:01;;;;;;;;;;;20.00;29.40;;;;;;467707;255;1316;-74
2022/01/25 04:33:05;;;;;;;;;;;19.90;29.50;;;;;;467774;255;1163;-74
2022/01/25 04:35:13;;;;;;;;;;;20.00;29.50;;;;;;467601;255;1423;-74
2022/01/25 04:49:12;;;;;;;;;;;20.00;29.40;;;;;;453315;255;1142;-73
2022/01/25 04:51:32;;;;;;;;;;;19.90;29.50;;;;;;467322;255;1643;-74
2022/01/25 04:53:30;;;;;;;;;;;20.20;29.50;;;;;;466825;255;1588;-74
2022/01/25 04:55:28;;;;;;;;;;;20.10;29.40;;;;;;467138;255;1409;-73
2022/01/25 04:57:33;;;;;;;;;;;20.00;29.40;;;;;;467311;255;1370;-74
2022/01/25 04:59:38;;;;;;;;;;;20.00;29.40;;;;;;467585;255;1453;-74
2022/01/25 05:01:35;;;;;;;;;;;20.00;29.30;;;;;;467250;255;2195;-74
2022/01/25 05:03:52;;;;;;;;;;;20.00;29.30;;;;;;467673;255;1535;-73
2022/01/25 05:05:42;;;;;;;;;;;19.90;29.40;;;;;;466660;255;1445;-74
2022/01/25 05:07:45;;;;;;;;;;;19.80;29.50;;;;;;467368;255;1304;-77
2022/01/25 05:09:42;;;;;;;;;;;19.90;29.40;;;;;;467299;255;1420;-76
2022/01/25 05:11:44;;;;;;;;;;;20.00;29.30;;;;;;467479;255;1452;-76
2022/01/25 05:13:47;;;;;;;;;;;20.00;29.30;;;;;;467621;255;1351;-76
2022/01/25 05:18:13;;;;;;;;;;;20.10;29.10;;;;;;467444;255;1215;-76
2022/01/25 05:22:30;;;;;;;;;;;20.00;29.20;;;;;;467621;255;1229;-77
2022/01/25 05:24:30;;;;;;;;;;;19.90;29.30;;;;;;467777;255;1320;-76
2022/01/25 05:26:32;;;;;;;;;;;19.90;29.30;;;;;;467510;254;1352;-76
2022/01/25 05:28:33;;;;;;;;;;;20.00;29.30;;;;;;467663;255;1172;-76
2022/01/25 05:30:34;;;;;;;;;;;19.90;29.30;;;;;;467608;255;1394;-76
2022/01/25 05:32:36;;;;;;;;;;;19.80;29.30;;;;;;467506;255;1173;-76
2022/01/25 05:34:37;;;;;;;;;;;19.90;29.40;;;;;;467508;255;1127;-76
2022/01/25 05:36:38;;;;;;;;;;;20.10;29.30;;;;;;467543;255;1207;-76
2022/01/25 05:38:39;;;;;;;;;;;19.90;29.30;;;;;;467600;255;1127;-76
2022/01/25 05:40:44;;;;;;;;;;;20.00;29.30;;;;;;467593;255;2196;-76
2022/01/25 05:43:53;;;;;;;;;;;20.10;29.20;;;;;;467538;255;1306;-76
2022/01/25 05:45:12;;;;;;;;;;;19.90;29.20;;;;;;466204;255;1378;-76
2022/01/25 05:47:06;;;;;;;;;;;19.90;29.20;;;;;;466698;255;1395;-76
2022/01/25 05:49:06;;;;;;;;;;;19.80;29.30;;;;;;467539;255;1591;-76
2022/01/25 05:51:08;;;;;;;;;;;19.90;29.40;;;;;;467483;254;1204;-76
2022/01/25 05:53:09;;;;;;;;;;;19.90;29.30;;;;;;467568;255;1171;-77
2022/01/25 05:55:10;;;;;;;;;;;19.80;29.30;;;;;;467545;255;1181;-76
2022/01/25 05:57:12;;;;;;;;;;;19.80;29.40;;;;;;467549;255;1279;-76
2022/01/25 05:59:13;;;;;;;;;;;19.80;29.40;;;;;;467434;255;971;-76
2022/01/25 06:01:15;;;;;;;;;;;19.90;29.20;;;;;;467439;255;2137;-76
2022/01/25 06:03:16;;;;;;;;;;;19.80;29.20;;;;;;467606;255;1189;-76
2022/01/25 06:05:17;;;;;;;;;;;19.90;29.20;;;;;;467649;255;1112;-76
2022/01/25 06:07:19;;;;;;;;;;;19.90;29.20;;;;;;467502;255;1436;-76
2022/01/25 06:09:20;;;;;;;;;;;19.80;29.30;;;;;;467692;255;1228;-77
2022/01/25 06:11:21;;;;;;;;;;;19.90;29.20;;;;;;467472;255;1324;-76
2022/01/25 06:13:23;;;;;;;;;;;19.80;29.30;;;;;;467433;255;1064;-76
2022/01/25 06:15:24;;;;;;;;;;;19.80;29.20;;;;;;467430;255;1054;-76
2022/01/25 06:17:25;;;;;;;;;;;19.90;29.10;;;;;;467449;255;1408;-76
2022/01/25 06:19:27;;;;;;;;;;;19.90;29.20;;;;;;467504;255;975;-76
2022/01/25 06:21:28;;;;;;;;;;;19.80;29.30;;;;;;467437;251;2121;-76
2022/01/25 06:23:29;;;;;;;;;;;19.90;29.20;;;;;;467399;255;1105;-76
2022/01/25 06:25:30;;;;;;;;;;;19.90;29.30;;;;;;467405;255;1237;-76
2022/01/25 06:27:32;;;;;;;;;;;19.90;29.10;;;;;;467271;255;1231;-76
2022/01/25 06:29:33;;;;;;;;;;;20.00;29.20;;;;;;467288;255;1213;-76
2022/01/25 06:31:34;;;;;;;;;;;19.90;29.20;;;;;;467224;255;1262;-76
2022/01/25 06:33:37;;;;;;;;;;;20.10;29.00;;;;;;467400;255;1091;-76
2022/01/25 06:35:37;;;;;;;;;;;19.80;29.10;;;;;;467308;255;1343;-77
2022/01/25 06:37:38;;;;;;;;;;;19.90;29.10;;;;;;467446;255;1182;-76
2022/01/25 06:39:40;;;;;;;;;;;19.80;29.20;;;;;;467501;255;1278;-76
2022/01/25 06:41:41;;;;;;;;;;;19.80;29.20;;;;;;467394;255;2207;-76
2022/01/25 06:43:42;;;;;;;;;;;20.00;29.10;;;;;;467527;255;1214;-76
2022/01/25 06:45:46;;;;;;;;;;;20.00;29.10;;;;;;467291;255;1176;-76
2022/01/25 06:47:45;;;;;;;;;;;20.00;29.20;;;;;;467102;255;1382;-76
2022/01/25 06:49:46;;;;;;;;;;;20.00;29.10;;;;;;467187;255;1164;-76
2022/01/25 06:51:49;;;;;;;;;;;19.90;29.10;;;;;;467219;255;1301;-76
2022/01/25 06:53:49;;;;;;;;;;;20.00;29.00;;;;;;467015;255;1416;-76
2022/01/25 06:55:50;;;;;;;;;;;19.90;29.00;;;;;;467196;255;1163;-76
2022/01/25 06:57:52;;;;;;;;;;;19.70;29.20;;;;;;467171;255;1237;-76
2022/01/25 06:59:53;;;;;;;;;;;19.70;29.20;;;;;;467288;255;1126;-76
2022/01/25 07:01:54;;;;;;;;;;;19.90;29.20;;;;;;467198;255;2132;-76
2022/01/25 07:03:56;;;;;;;;;;;19.60;29.30;;;;;;467266;255;1067;-76
2022/01/25 07:05:57;;;;;;;;;;;19.70;29.30;;;;;;467165;255;1010;-76
2022/01/25 07:07:58;;;;;;;;;;;19.90;29.20;;;;;;467156;255;1297;-76
2022/01/25 07:10:00;;;;;;;;;;;19.80;29.30;;;;;;467102;255;1060;-76
2022/01/25 07:12:01;;;;;;;;;;;19.90;29.20;;;;;;467125;255;1327;-76
2022/01/25 07:14:02;;;;;;;;;;;19.80;29.10;;;;;;466987;255;1120;-76
2022/01/25 07:16:04;;;;;;;;;;;19.90;29.10;;;;;;467032;255;1089;-76
2022/01/25 07:18:05;;;;;;;;;;;19.80;29.20;;;;;;467316;254;1164;-76
2022/01/25 07:20:06;;;;;;;;;;;19.90;29.10;;;;;;467203;255;1015;-76
2022/01/25 07:22:08;;;;;;;;;;;19.80;29.20;;;;;;467273;255;2953;-76
2022/01/25 07:24:09;;;;;;;;;;;20.10;29.00;;;;;;467212;255;1066;-76
2022/01/25 07:26:10;;;;;;;;;;;20.00;29.10;;;;;;467130;255;1235;-76
2022/01/25 07:28:12;;;;;;;;;;;19.90;29.10;;;;;;467282;255;966;-76
2022/01/25 07:30:13;;;;;;;;;;;19.80;29.20;;;;;;467186;255;1017;-76
2022/01/25 07:32:14;;;;;;;;;;;19.80;29.20;;;;;;467198;255;1180;-76
2022/01/25 07:34:16;;;;;;;;;;;19.90;29.00;;;;;;467064;255;1156;-76
2022/01/25 07:36:17;;;;;;;;;;;19.90;29.00;;;;;;467080;255;1272;-76
2022/01/25 07:38:18;;;;;;;;;;;19.80;29.10;;;;;;467076;255;1062;-76
2022/01/25 07:40:20;;;;;;;;;;;19.90;29.20;;;;;;467063;255;996;-76
2022/01/25 07:42:21;;;;;;;;;;;19.70;29.30;;;;;;466984;255;2149;-76
2022/01/25 07:44:26;;;;;;;;;;;20.00;29.00;;;;;;467104;255;1014;-76
2022/01/25 07:46:24;;;;;;;;;;;19.90;29.10;;;;;;466701;255;1544;-76
2022/01/25 07:48:25;;;;;;;;;;;19.90;29.20;;;;;;467059;255;1440;-76
2022/01/25 07:50:27;;;;;;;;;;;19.90;29.20;;;;;;466945;255;1141;-76
2022/01/25 07:52:28;;;;;;;;;;;19.80;29.20;;;;;;467078;255;1069;-76
2022/01/25 07:54:29;;;;;;;;;;;19.90;29.10;;;;;;466852;255;1004;-76
2022/01/25 07:56:31;;;;;;;;;;;19.70;29.30;;;;;;467010;255;1196;-76
2022/01/25 07:58:32;;;;;;;;;;;20.20;28.90;;;;;;467028;255;1142;-76
2022/01/25 08:00:33;;;;;;;;;;;20.10;29.00;;;;;;467065;255;1009;-76
2022/01/25 08:02:35;;;;;;;;;;;20.20;28.80;;;;;;467064;255;2121;-76
2022/01/25 08:04:36;;;;;;;;;;;19.90;29.00;;;;;;466970;255;1058;-76
2022/01/25 08:06:37;;;;;;;;;;;19.80;29.30;;;;;;466985;255;1189;-76
2022/01/25 08:08:38;;;;;;;;;;;20.00;29.00;;;;;;466964;255;1129;-76
2022/01/25 08:10:40;;;;;;;;;;;19.90;29.10;;;;;;466813;255;1148;-76
2022/01/25 08:12:41;;;;;;;;;;;20.00;29.10;;;;;;466938;255;1204;-76
2022/01/25 08:14:44;;;;;;;;;;;19.90;29.10;;;;;;466721;255;1102;-76
2022/01/25 08:16:44;;;;;;;;;;;19.90;29.20;;;;;;466608;255;1323;-76
2022/01/25 08:18:45;;;;;;;;;;;19.80;29.20;;;;;;466734;255;1546;-76
2022/01/25 08:20:47;;;;;;;;;;;19.60;29.40;;;;;;466673;255;1207;-76
2022/01/25 08:22:48;;;;;;;;;;;19.60;29.50;;;;;;466862;255;2247;-76
2022/01/25 08:24:49;;;;;;;;;;;19.80;29.30;;;;;;467015;255;1215;-76
2022/01/25 08:26:50;;;;;;;;;;;19.80;29.30;;;;;;466983;255;1151;-76
2022/01/25 08:28:52;;;;;;;;;;;19.70;29.40;;;;;;466838;255;1128;-76
2022/01/25 08:30:53;;;;;;;;;;;19.70;29.50;;;;;;466860;255;1058;-76
2022/01/25 08:32:54;;;;;;;;;;;19.70;29.50;;;;;;466768;255;1515;-76
2022/01/25 08:34:57;;;;;;;;;;;19.70;29.50;;;;;;466661;255;1162;-76
2022/01/25 08:36:58;;;;;;;;;;;19.80;29.30;;;;;;466802;255;1615;-76
2022/01/25 08:38:58;;;;;;;;;;;19.70;29.30;;;;;;466811;255;1404;-76
2022/01/25 08:41:00;;;;;;;;;;;19.80;29.40;;;;;;466796;255;1206;-76
2022/01/25 08:43:01;;;;;;;;;;;19.70;29.40;;;;;;466892;255;2333;-76
2022/01/25 08:45:02;;;;;;;;;;;19.80;29.30;;;;;;466772;255;1129;-76
2022/01/25 08:47:04;;;;;;;;;;;19.70;29.20;;;;;;466999;255;1209;-76
2022/01/25 08:49:05;;;;;;;;;;;19.80;29.20;;;;;;467005;255;1210;-76
2022/01/25 08:51:06;;;;;;;;;;;20.00;29.20;;;;;;466874;255;1313;-76
2022/01/25 08:53:09;;;;;;;;;;;20.10;29.10;;;;;;466795;255;1075;-76
2022/01/25 08:55:09;;;;;;;;;;;19.90;29.20;;;;;;466804;255;1832;-76
2022/01/25 08:57:10;;;;;;;;;;;19.90;29.30;;;;;;466985;255;1187;-76
2022/01/25 08:59:12;;;;;;;;;;;19.90;29.30;;;;;;466817;255;1121;-76
2022/01/25 09:01:13;;;;;;;;;;;20.00;29.10;;;;;;466757;255;1306;-76
2022/01/25 09:03:14;;;;;;;;;;;20.10;29.10;;;;;;466809;255;2204;-76
2022/01/25 09:05:16;;;;;;;;;;;19.90;29.20;;;;;;466698;255;1350;-76
2022/01/25 09:07:17;;;;;;;;;;;19.90;29.00;;;;;;466774;255;1423;-76
2022/01/25 09:09:18;;;;;;;;;;;19.90;29.10;;;;;;466718;255;1030;-76
2022/01/25 09:11:20;;;;;;;;;;;19.80;29.30;;;;;;466732;255;1292;-76
2022/01/25 09:13:21;;;;;;;;;;;19.80;29.30;;;;;;466733;255;1199;-76
2022/01/25 09:15:22;;;;;;;;;;;19.60;29.40;;;;;;466773;255;1097;-76
2022/01/25 09:17:23;;;;;;;;;;;19.90;29.30;;;;;;466675;255;1104;-76
2022/01/25 09:19:25;;;;;;;;;;;20.10;29.10;;;;;;466689;255;1109;-75
2022/01/25 09:21:26;;;;;;;;;;;20.50;28.70;;;;;;466779;255;1017;-60
2022/01/25 09:23:27;;;;;;;;;;;21.10;28.10;;;;;;466594;255;2200;-61
2022/01/25 09:25:29;;;;;;;;;;;21.70;27.50;;;;;;466559;255;1104;-61
2022/01/25 09:27:30;;;;;;;;;;;21.90;27.30;;;;;;466845;255;1389;-61
2022/01/25 09:29:31;;;;;;;;;;;21.90;27.30;;;;;;467463;255;880;-62
2022/01/25 09:31:33;;;;;;;;;;;22.00;27.20;;;;;;466883;255;1478;-61
2022/01/25 09:33:34;;;;;;;;;;;22.00;27.10;;;;;;467086;255;1154;-62
2022/01/25 09:35:35;;;;;;;;;;;22.00;27.20;;;;;;467223;255;826;-61
2022/01/25 09:37:37;;;;;;;;;;;22.00;27.20;;;;;;467268;255;1063;-62
2022/01/25 09:39:38;;;;;;;;;;;22.00;27.20;;;;;;466976;255;1347;-61
2022/01/25 09:41:39;;;;;;;;;;;22.00;27.10;;;;;;466894;255;1291;-61
2022/01/25 09:43:41;;;;;;;;;;;22.10;27.10;;;;;;466896;255;2132;-61
2022/01/25 09:45:42;;;;;;;;;;;22.00;27.20;;;;;;466940;255;1430;-61
2022/01/25 09:47:43;;;;;;;;;;;22.00;27.20;;;;;;466898;255;1246;-62
2022/01/25 09:49:45;;;;;;;;;;;22.10;27.10;;;;;;466896;255;1210;-61
2022/01/25 09:51:46;;;;;;;;;;;22.10;27.10;;;;;;466724;255;1257;-61
2022/01/25 09:53:47;;;;;;;;;;;22.10;27.10;;;;;;466757;255;1084;-61
2022/01/25 09:55:48;;;;;;;;;;;22.10;27.10;;;;;;466790;255;1234;-62
2022/01/25 09:57:50;;;;;;;;;;;22.10;27.10;;;;;;466908;255;1088;-61
2022/01/25 09:59:51;;;;;;;;;;;22.10;27.10;;;;;;466949;255;1128;-61
2022/01/25 10:01:52;;;;;;;;;;;22.10;27.00;;;;;;466942;255;2196;-62
2022/01/25 10:03:54;;;;;;;;;;;22.10;27.10;;;;;;466764;255;1182;-61
2022/01/25 10:05:58;;;;;;;;;;;22.10;27.10;;;;;;466780;255;1388;-61
2022/01/25 10:07:57;;;;;;;;;;;22.10;27.00;;;;;;466535;255;1993;-61
2022/01/25 10:09:58;;;;;;;;;;;22.10;27.10;;;;;;466817;255;1086;-61
2022/01/25 10:12:00;;;;;;;;;;;22.10;27.10;;;;;;466685;255;1376;-61
2022/01/25 10:14:01;;;;;;;;;;;22.00;27.10;;;;;;466972;255;1081;-61
2022/01/25 10:16:02;;;;;;;;;;;22.10;27.00;;;;;;466914;255;1321;-63
2022/01/25 10:18:04;;;;;;;;;;;22.20;27.00;;;;;;466939;255;1145;-61
2022/01/25 10:20:06;;;;;;;;;;;22.10;27.00;;;;;;467003;255;1227;-61
2022/01/25 10:22:07;;;;;;;;;;;22.00;27.10;;;;;;466940;255;2195;-62
2022/01/25 10:24:08;;;;;;;;;;;22.10;27.00;;;;;;466754;255;1227;-61
2022/01/25 10:26:10;;;;;;;;;;;22.20;27.00;;;;;;466794;255;1185;-62
2022/01/25 10:28:12;;;;;;;;;;;22.10;27.00;;;;;;466802;255;1150;-61
2022/01/25 10:30:12;;;;;;;;;;;22.20;27.00;;;;;;466899;255;1085;-62
2022/01/25 10:32:14;;;;;;;;;;;22.20;26.90;;;;;;466897;255;1128;-61
2022/01/25 10:34:15;;;;;;;;;;;22.20;27.00;;;;;;466975;255;2413;-61
2022/01/25 10:36:16;;;;;;;;;;;22.20;27.00;;;;;;466997;255;1211;-61
2022/01/25 10:38:18;;;;;;;;;;;22.20;27.10;;;;;;466977;255;1105;-61
2022/01/25 10:40:19;;;;;;;;;;;22.20;27.00;;;;;;466112;255;1131;-61
2022/01/25 10:42:20;;;;;;;;;;;22.20;27.00;;;;;;466742;255;2204;-61
2022/01/25 10:44:22;;;;;;;;;;;22.20;27.00;;;;;;466814;255;1095;-61
2022/01/25 10:46:24;;;;;;;;;;;22.20;27.10;;;;;;466712;255;1210;-62
2022/01/25 10:48:25;;;;;;;;;;;22.10;27.10;;;;;;467335;255;1332;-61
2022/01/25 10:50:26;;;;;;;;;;;22.20;27.00;;;;;;467070;255;1110;-62
2022/01/25 10:52:28;;;;;;;;;;;22.20;27.00;;;;;;466873;255;1088;-61
2022/01/25 10:54:29;;;;;;;;;;;22.20;27.00;;;;;;466911;255;1302;-61
2022/01/25 10:56:30;;;;;;;;;;;22.20;27.10;;;;;;466966;255;1467;-62
2022/01/25 10:58:31;;;;;;;;;;;22.20;27.00;;;;;;466857;255;1071;-61
2022/01/25 11:00:33;;;;;;;;;;;22.30;27.00;;;;;;466713;255;1309;-61
2022/01/25 11:02:35;;;;;;;;;;;22.30;27.00;;;;;;467017;255;2129;-62
2022/01/25 11:04:36;;;;;;;;;;;22.20;27.10;;;;;;466862;255;1147;-61
2022/01/25 11:06:37;;;;;;;;;;;22.20;27.00;;;;;;467259;254;1240;-61
2022/01/25 11:08:39;;;;;;;;;;;22.20;27.10;;;;;;466835;255;1062;-61
2022/01/25 11:10:43;;;;;;;;;;;22.20;27.10;;;;;;466822;255;1349;-61
2022/01/25 11:12:48;;;;;;;;;;;22.20;27.10;;;;;;466783;255;1278;-61
2022/01/25 11:14:53;;;;;;;;;;;22.20;27.10;;;;;;466398;255;1959;-62
2022/01/25 11:16:55;;;;;;;;;;;22.20;27.10;;;;;;466983;254;1349;-61
2022/01/25 11:18:56;;;;;;;;;;;22.20;27.10;;;;;;466834;255;1076;-61
2022/01/25 11:20:57;;;;;;;;;;;22.20;27.10;;;;;;466816;255;1255;-61
2022/01/25 11:22:59;;;;;;;;;;;22.30;27.10;;;;;;467106;255;2200;-62
2022/01/25 11:25:00;;;;;;;;;;;22.20;27.00;;;;;;467046;255;1094;-61
2022/01/25 11:27:01;;;;;;;;;;;22.30;27.10;;;;;;466989;255;1347;-62
2022/01/25 11:29:03;;;;;;;;;;;22.20;27.20;;;;;;466795;255;1089;-62
2022/01/25 11:31:04;;;;;;;;;;;22.20;27.20;;;;;;466854;255;1322;-62
2022/01/25 11:33:05;;;;;;;;;;;22.30;27.20;;;;;;466988;255;1200;-62
2022/01/25 11:35:07;;;;;;;;;;;22.20;27.10;;;;;;466987;255;1211;-61
2022/01/25 11:37:08;;;;;;;;;;;22.20;27.20;;;;;;467013;255;1227;-62
2022/01/25 11:39:09;;;;;;;;;;;22.30;27.20;;;;;;466757;255;1243;-61
2022/01/25 11:41:11;;;;;;;;;;;22.30;27.20;;;;;;466765;255;1235;-61
2022/01/25 11:43:12;;;;;;;;;;;22.30;27.10;;;;;;466811;255;2187;-61
2022/01/25 11:45:13;;;;;;;;;;;22.30;27.20;;;;;;466875;255;1060;-61
2022/01/25 11:47:16;;;;;;;;;;;22.20;27.20;;;;;;466956;255;1112;-62
2022/01/25 11:49:17;;;;;;;;;;;22.20;27.10;;;;;;466929;255;2114;-61
2022/01/25 11:51:17;;;;;;;;;;;22.30;27.00;;;;;;466952;255;1495;-62
2022/01/25 11:53:19;;;;;;;;;;;22.30;27.10;;;;;;467127;255;1125;-61
2022/01/25 11:55:20;;;;;;;;;;;22.20;27.10;;;;;;466994;255;1181;-62
2022/01/25 11:57:21;;;;;;;;;;;22.20;27.10;;;;;;466981;255;1349;-61
2022/01/25 11:59:23;;;;;;;;;;;22.30;27.00;;;;;;466812;255;1088;-61
2022/01/25 12:01:24;;;;;;;;;;;22.30;27.00;;;;;;466841;255;1479;-61
2022/01/25 12:03:25;;;;;;;;;;;22.30;27.10;;;;;;466987;255;2212;-61
2022/01/25 12:05:27;;;;;;;;;;;22.30;27.20;;;;;;466795;255;1250;-61
2022/01/25 12:07:35;;;;;;;;;;;22.20;27.20;;;;;;466963;255;1660;-62
2022/01/25 12:09:42;;;;;;;;;;;22.30;27.10;;;;;;466682;255;1332;-61
2022/01/25 12:11:35;;;;;;;;;;;22.30;27.20;;;;;;466118;255;2167;-62
2022/01/25 12:13:35;;;;;;;;;;;22.30;27.20;;;;;;466768;255;1301;-61
2022/01/25 12:15:36;;;;;;;;;;;22.30;27.10;;;;;;466908;255;1084;-61
2022/01/25 12:17:38;;;;;;;;;;;22.30;27.10;;;;;;466846;255;1289;-61
2022/01/25 12:19:44;;;;;;;;;;;22.30;27.20;;;;;;467022;255;1099;-61
2022/01/25 12:21:41;;;;;;;;;;;22.20;27.20;;;;;;466753;253;2352;-62
2022/01/25 12:23:46;;;;;;;;;;;22.30;27.10;;;;;;466656;255;2217;-61
2022/01/25 12:25:51;;;;;;;;;;;22.30;27.20;;;;;;466294;255;1578;-61
2022/01/25 12:27:52;;;;;;;;;;;22.30;27.20;;;;;;466640;255;1477;-61
2022/01/25 12:29:51;;;;;;;;;;;22.20;27.20;;;;;;467378;255;1350;-62
2022/01/25 12:31:53;;;;;;;;;;;22.30;27.20;;;;;;467413;254;1198;-62
2022/01/25 12:33:54;;;;;;;;;;;22.30;27.20;;;;;;466671;255;1087;-61
2022/01/25 12:35:59;;;;;;;;;;;22.30;27.20;;;;;;466586;255;1423;-61
2022/01/25 12:37:57;;;;;;;;;;;22.30;27.30;;;;;;466352;255;1523;-61
2022/01/25 12:39:58;;;;;;;;;;;22.20;27.30;;;;;;466835;255;1087;-61
2022/01/25 12:42:00;;;;;;;;;;;22.30;27.20;;;;;;466779;255;1239;-61
2022/01/25 12:44:01;;;;;;;;;;;22.30;27.30;;;;;;466962;255;2193;-61
2022/01/25 12:46:02;;;;;;;;;;;22.30;27.30;;;;;;467005;255;1503;-61
2022/01/25 12:48:04;;;;;;;;;;;22.10;27.40;;;;;;466740;255;1325;-61
2022/01/25 12:50:06;;;;;;;;;;;22.20;27.30;;;;;;466619;255;1143;-61
2022/01/25 12:52:06;;;;;;;;;;;22.00;27.40;;;;;;466497;255;1379;-61
2022/01/25 12:54:07;;;;;;;;;;;21.90;27.60;;;;;;466828;255;1216;-61
2022/01/25 12:56:10;;;;;;;;;;;21.90;27.60;;;;;;466883;255;1206;-61
2022/01/25 12:58:10;;;;;;;;;;;21.80;27.70;;;;;;467072;255;1865;-61
2022/01/25 13:00:12;;;;;;;;;;;21.70;27.80;;;;;;466855;255;1348;-61
2022/01/25 13:02:13;;;;;;;;;;;21.70;27.80;;;;;;466985;255;1263;-61
2022/01/25 13:04:14;;;;;;;;;;;21.70;27.80;;;;;;466991;255;2193;-62
2022/01/25 13:06:15;;;;;;;;;;;21.50;27.90;;;;;;466976;255;1303;-61
2022/01/25 13:08:17;;;;;;;;;;;21.60;27.90;;;;;;466964;255;1002;-61